Time,TemperatureF,DewpointF,PressureIn,WindDirection,WindDirectionDegrees,WindSpeedMPH,WindSpeedGustMPH,Humidity,HourlyPrecipIn,Conditions,Clouds,dailyrainin,SoftwareType,DateUTC
2013-01-02 00:01:00,31.0,28.1,30.21,North,355,0.0,0.0,89,0.01,,,0.00,VWS V14.01,2013-01-02 05:01:00,
2013-01-02 00:02:00,30.9,28.0,30.21,North,355,0.0,0.0,89,0.01,,,0.00,VWS V14.01,2013-01-02 05:02:00,
2013-01-02 00:04:00,31.0,28.1,30.22,North,355,0.0,0.0,89,0.01,,,0.00,VWS V14.01,2013-01-02 05:04:00,
2013-01-02 00:05:00,30.9,28.0,30.22,North,355,1.0,1.0,89,0.01,,,0.00,VWS V14.01,2013-01-02 05:05:00,
2013-01-02 00:10:00,30.9,28.0,30.22,North,355,2.0,2.0,89,0.01,,,0.00,VWS V14.01,2013-01-02 05:10:00,
2013-01-02 00:15:00,30.9,28.0,30.22,North,355,0.0,0.0,89,0.01,,,0.00,VWS V14.01,2013-01-02 05:15:00,
2013-01-02 00:20:00,30.9,28.0,30.22,North,355,3.0,3.0,89,0.01,,,0.00,VWS V14.01,2013-01-02 05:20:00,
2013-01-02 00:25:00,30.9,28.0,30.22,North,355,0.0,0.0,89,0.01,,,0.00,VWS V14.01,2013-01-02 05:25:00,
2013-01-02 00:30:00,30.9,28.0,30.22,North,355,1.0,2.0,89,0.01,,,0.00,VWS V14.01,2013-01-02 05:30:00,
2013-01-02 00:35:00,30.8,28.0,30.22,North,355,2.0,3.0,89,0.01,,,0.00,VWS V14.01,2013-01-02 05:35:00,
2013-01-02 00:40:00,30.8,28.0,30.21,North,355,3.0,3.0,89,0.00,,,0.00,VWS V14.01,2013-01-02 05:40:00,
2013-01-02 00:45:00,30.8,28.0,30.22,North,355,0.0,0.0,89,0.00,,,0.00,VWS V14.01,2013-01-02 05:45:00,
2013-01-02 00:50:00,30.8,28.0,30.22,North,355,0.0,0.0,89,0.00,,,0.00,VWS V14.01,2013-01-02 05:50:00,
2013-01-02 00:55:00,30.8,28.0,30.22,North,355,0.0,2.0,89,0.00,,,0.00,VWS V14.01,2013-01-02 05:55:00,
2013-01-02 01:00:00,30.8,28.0,30.21,North,355,2.0,2.0,89,0.00,,,0.00,VWS V14.01,2013-01-02 06:00:00,
2013-01-02 01:06:00,30.8,28.0,30.22,North,355,3.0,4.0,89,0.00,,,0.00,VWS V14.01,2013-01-02 06:06:00,
2013-01-02 01:11:00,30.8,28.0,30.21,North,355,0.0,0.0,89,0.00,,,0.00,VWS V14.01,2013-01-02 06:11:00,
2013-01-02 01:16:00,30.8,28.0,30.22,North,355,0.0,2.0,89,0.00,,,0.00,VWS V14.01,2013-01-02 06:16:00,
2013-01-02 01:21:00,30.8,28.2,30.21,North,355,0.0,1.0,90,0.00,,,0.00,VWS V14.01,2013-01-02 06:21:00,
2013-01-02 01:26:00,30.8,28.2,30.22,North,355,0.0,2.0,90,0.00,,,0.00,VWS V14.01,2013-01-02 06:26:00,
2013-01-02 01:31:00,30.8,28.2,30.21,North,355,0.0,0.0,90,0.00,,,0.00,VWS V14.01,2013-01-02 06:31:00,
2013-01-02 01:36:00,30.8,28.2,30.21,North,355,0.0,3.0,90,0.00,,,0.00,VWS V14.01,2013-01-02 06:36:00,
2013-01-02 01:41:00,30.7,28.1,30.21,North,355,1.0,3.0,90,0.00,,,0.00,VWS V14.01,2013-01-02 06:41:00,
2013-01-02 01:46:00,30.8,28.2,30.21,North,355,0.0,0.0,90,0.00,,,0.00,VWS V14.01,2013-01-02 06:46:00,
2013-01-02 01:51:00,30.8,28.2,30.21,North,355,0.0,0.0,90,0.00,,,0.00,VWS V14.01,2013-01-02 06:51:00,
2013-01-02 01:56:00,30.8,28.2,30.21,North,355,1.0,1.0,90,0.00,,,0.00,VWS V14.01,2013-01-02 06:56:00,
2013-01-02 02:01:00,30.8,28.5,30.21,North,355,1.0,1.0,91,0.00,,,0.00,VWS V14.01,2013-01-02 07:01:00,
2013-01-02 02:06:00,30.8,28.2,30.20,North,355,1.0,1.0,90,0.00,,,0.00,VWS V14.01,2013-01-02 07:06:00,
2013-01-02 02:11:00,30.7,28.4,30.21,North,355,0.0,2.0,91,0.00,,,0.00,VWS V14.01,2013-01-02 07:11:00,
2013-01-02 02:16:00,30.7,28.4,30.22,North,355,1.0,1.0,91,0.00,,,0.00,VWS V14.01,2013-01-02 07:16:00,
2013-01-02 02:21:00,30.7,28.4,30.22,North,355,3.0,4.0,91,0.00,,,0.00,VWS V14.01,2013-01-02 07:21:00,
2013-01-02 02:26:00,30.6,28.3,30.22,North,350,0.0,1.0,91,0.00,,,0.00,VWS V14.01,2013-01-02 07:26:00,
2013-01-02 02:31:00,30.6,28.3,30.22,North,351,0.0,1.0,91,0.00,,,0.00,VWS V14.01,2013-01-02 07:31:00,
2013-01-02 02:36:00,30.5,28.2,30.22,North,349,3.0,4.0,91,0.00,,,0.00,VWS V14.01,2013-01-02 07:36:00,
2013-01-02 02:41:00,30.5,28.2,30.22,North,349,3.0,3.0,91,0.00,,,0.00,VWS V14.01,2013-01-02 07:41:00,
2013-01-02 02:46:00,30.4,28.1,30.23,NNW,346,1.0,9.0,91,0.00,,,0.00,VWS V14.01,2013-01-02 07:46:00,
2013-01-02 02:51:00,30.3,28.0,30.22,NNW,345,3.0,5.0,91,0.00,,,0.00,VWS V14.01,2013-01-02 07:51:00,
2013-01-02 02:56:00,30.2,27.6,30.23,NNW,345,0.0,0.0,90,0.00,,,0.00,VWS V14.01,2013-01-02 07:56:00,
2013-01-02 03:01:00,30.1,27.5,30.23,NNW,345,0.0,3.0,90,0.00,,,0.00,VWS V14.01,2013-01-02 08:01:00,
2013-01-02 03:06:00,30.1,27.3,30.24,NNW,346,2.0,3.0,89,0.00,,,0.00,VWS V14.01,2013-01-02 08:06:00,
2013-01-02 03:12:00,30.0,27.2,30.24,NNW,346,1.0,2.0,89,0.00,,,0.00,VWS V14.01,2013-01-02 08:12:00,
2013-01-02 03:17:00,30.0,27.2,30.24,NNW,346,0.0,0.0,89,0.00,,,0.00,VWS V14.01,2013-01-02 08:17:00,
2013-01-02 03:22:00,29.9,26.8,30.24,NNW,345,3.0,4.0,88,0.00,,,0.00,VWS V14.01,2013-01-02 08:22:00,
2013-01-02 03:27:00,29.8,26.7,30.26,NNW,345,2.0,3.0,88,0.00,,,0.00,VWS V14.01,2013-01-02 08:27:00,
2013-01-02 03:32:00,29.8,26.4,30.25,North,350,1.0,3.0,87,0.00,,,0.00,VWS V14.01,2013-01-02 08:32:00,
2013-01-02 03:37:00,29.8,26.4,30.25,North,350,2.0,2.0,87,0.00,,,0.00,VWS V14.01,2013-01-02 08:37:00,
2013-01-02 03:42:00,29.7,26.3,30.25,North,355,0.0,0.0,87,0.00,,,0.00,VWS V14.01,2013-01-02 08:42:00,
2013-01-02 03:47:00,29.7,26.3,30.25,North,355,0.0,1.0,87,0.00,,,0.00,VWS V14.01,2013-01-02 08:47:00,
2013-01-02 03:52:00,29.7,26.3,30.24,North,355,0.0,0.0,87,0.00,,,0.00,VWS V14.01,2013-01-02 08:52:00,
2013-01-02 03:57:00,29.7,26.3,30.25,North,355,0.0,1.0,87,0.00,,,0.00,VWS V14.01,2013-01-02 08:57:00,
2013-01-02 04:02:00,29.7,26.6,30.25,North,355,0.0,0.0,88,0.00,,,0.00,VWS V14.01,2013-01-02 09:02:00,
2013-01-02 04:07:00,29.7,26.6,30.25,North,355,0.0,0.0,88,0.00,,,0.00,VWS V14.01,2013-01-02 09:07:00,
2013-01-02 04:12:00,29.7,26.6,30.25,North,355,0.0,1.0,88,0.00,,,0.00,VWS V14.01,2013-01-02 09:12:00,
2013-01-02 04:17:00,29.7,26.6,30.25,North,355,2.0,2.0,88,0.00,,,0.00,VWS V14.01,2013-01-02 09:17:00,
2013-01-02 04:22:00,29.6,26.8,30.25,North,355,1.0,1.0,89,0.00,,,0.00,VWS V14.01,2013-01-02 09:22:00,
2013-01-02 04:27:00,29.6,26.8,30.25,North,355,0.0,0.0,89,0.00,,,0.00,VWS V14.01,2013-01-02 09:27:00,
2013-01-02 04:32:00,29.4,26.6,30.25,North,355,0.0,1.0,89,0.00,,,0.00,VWS V14.01,2013-01-02 09:32:00,
2013-01-02 04:37:00,29.3,26.7,30.25,North,355,0.0,0.0,90,0.00,,,0.00,VWS V14.01,2013-01-02 09:37:00,
2013-01-02 04:42:00,29.2,26.6,30.25,North,355,2.0,5.0,90,0.00,,,0.00,VWS V14.01,2013-01-02 09:42:00,
2013-01-02 04:47:00,29.1,26.5,30.24,North,355,4.0,4.0,90,0.00,,,0.00,VWS V14.01,2013-01-02 09:47:00,
2013-01-02 04:52:00,28.9,26.3,30.24,North,355,0.0,1.0,90,0.00,,,0.00,VWS V14.01,2013-01-02 09:52:00,
2013-01-02 04:57:00,28.8,26.5,30.25,North,355,0.0,2.0,91,0.00,,,0.00,VWS V14.01,2013-01-02 09:57:00,
2013-01-02 05:02:00,28.7,26.4,30.25,North,355,0.0,0.0,91,0.00,,,0.00,VWS V14.01,2013-01-02 10:02:00,
2013-01-02 05:07:00,28.5,26.2,30.25,North,355,0.0,0.0,91,0.00,,,0.00,VWS V14.01,2013-01-02 10:07:00,
2013-01-02 05:12:00,28.3,26.0,30.25,North,355,0.0,0.0,91,0.00,,,0.00,VWS V14.01,2013-01-02 10:12:00,
2013-01-02 05:17:00,28.1,25.8,30.25,North,355,0.0,0.0,91,0.00,,,0.00,VWS V14.01,2013-01-02 10:17:00,
2013-01-02 05:22:00,27.9,25.6,30.25,North,355,0.0,0.0,91,0.00,,,0.00,VWS V14.01,2013-01-02 10:22:00,
2013-01-02 05:28:00,27.7,25.4,30.26,North,355,0.0,0.0,91,0.00,,,0.00,VWS V14.01,2013-01-02 10:28:00,
2013-01-02 05:33:00,27.6,25.3,30.26,North,355,2.0,2.0,91,0.00,,,0.00,VWS V14.01,2013-01-02 10:33:00,
2013-01-02 05:38:00,27.4,25.1,30.25,North,355,0.0,0.0,91,0.00,,,0.00,VWS V14.01,2013-01-02 10:38:00,
2013-01-02 05:43:00,27.1,24.8,30.25,North,355,0.0,0.0,91,0.00,,,0.00,VWS V14.01,2013-01-02 10:43:00,
2013-01-02 05:48:00,27.0,24.7,30.25,North,355,3.0,3.0,91,0.00,,,0.00,VWS V14.01,2013-01-02 10:48:00,
2013-01-02 05:53:00,26.9,24.9,30.25,North,355,0.0,0.0,92,0.00,,,0.00,VWS V14.01,2013-01-02 10:53:00,
2013-01-02 05:58:00,26.7,24.7,30.25,North,355,0.0,0.0,92,0.00,,,0.00,VWS V14.01,2013-01-02 10:58:00,
2013-01-02 06:03:00,26.6,24.6,30.25,North,355,0.0,0.0,92,0.00,,,0.00,VWS V14.01,2013-01-02 11:03:00,
2013-01-02 06:08:00,26.5,24.5,30.25,North,355,0.0,1.0,92,0.00,,,0.00,VWS V14.01,2013-01-02 11:08:00,
2013-01-02 06:13:00,26.4,24.4,30.26,North,355,0.0,3.0,92,0.00,,,0.00,VWS V14.01,2013-01-02 11:13:00,
2013-01-02 06:18:00,26.3,24.3,30.27,North,355,0.0,0.0,92,0.00,,,0.00,VWS V14.01,2013-01-02 11:18:00,
2013-01-02 06:23:00,26.3,24.3,30.27,North,355,0.0,0.0,92,0.00,,,0.00,VWS V14.01,2013-01-02 11:23:00,
2013-01-02 06:28:00,26.2,24.2,30.27,North,355,0.0,0.0,92,0.00,,,0.00,VWS V14.01,2013-01-02 11:28:00,
2013-01-02 06:33:00,26.1,24.1,30.27,North,355,0.0,0.0,92,0.00,,,0.00,VWS V14.01,2013-01-02 11:33:00,
2013-01-02 06:38:00,26.0,24.0,30.27,North,355,0.0,0.0,92,0.00,,,0.00,VWS V14.01,2013-01-02 11:38:00,
2013-01-02 06:43:00,25.8,23.8,30.27,North,355,0.0,0.0,92,0.00,,,0.00,VWS V14.01,2013-01-02 11:43:00,
2013-01-02 06:48:00,25.7,23.7,30.27,North,355,0.0,0.0,92,0.00,,,0.00,VWS V14.01,2013-01-02 11:48:00,
2013-01-02 06:53:00,25.6,23.6,30.27,North,355,0.0,0.0,92,0.00,,,0.00,VWS V14.01,2013-01-02 11:53:00,
2013-01-02 06:58:00,25.4,23.4,30.27,North,355,0.0,0.0,92,0.00,,,0.00,VWS V14.01,2013-01-02 11:58:00,
2013-01-02 07:03:00,25.3,23.3,30.28,North,355,0.0,0.0,92,0.00,,,0.00,VWS V14.01,2013-01-02 12:03:00,
2013-01-02 07:08:00,25.2,23.2,30.29,North,355,0.0,0.0,92,0.00,,,0.00,VWS V14.01,2013-01-02 12:08:00,
2013-01-02 07:13:00,25.0,23.3,30.29,North,355,0.0,0.0,93,0.00,,,0.00,VWS V14.01,2013-01-02 12:13:00,
2013-01-02 07:18:00,24.9,23.2,30.29,North,355,0.0,0.0,93,0.00,,,0.00,VWS V14.01,2013-01-02 12:18:00,
2013-01-02 07:23:00,24.7,23.0,30.29,North,355,0.0,0.0,93,0.00,,,0.00,VWS V14.01,2013-01-02 12:23:00,
2013-01-02 07:28:00,24.6,22.9,30.29,North,355,0.0,0.0,93,0.00,,,0.00,VWS V14.01,2013-01-02 12:28:00,
2013-01-02 07:33:00,24.5,22.8,30.30,North,355,0.0,0.0,93,0.00,,,0.00,VWS V14.01,2013-01-02 12:33:00,
2013-01-02 07:38:00,24.4,22.7,30.30,North,355,0.0,0.0,93,0.00,,,0.00,VWS V14.01,2013-01-02 12:38:00,
2013-01-02 07:43:00,24.4,22.7,30.29,North,355,0.0,0.0,93,0.00,,,0.00,VWS V14.01,2013-01-02 12:43:00,
2013-01-02 07:48:00,24.3,22.6,30.30,North,355,0.0,0.0,93,0.00,,,0.00,VWS V14.01,2013-01-02 12:48:00,
2013-01-02 07:53:00,24.2,22.5,30.30,North,355,0.0,0.0,93,0.00,,,0.00,VWS V14.01,2013-01-02 12:53:00,
2013-01-02 07:58:00,24.1,22.4,30.29,North,355,0.0,0.0,93,0.00,,,0.00,VWS V14.01,2013-01-02 12:58:00,
2013-01-02 08:04:00,24.0,22.3,30.28,North,355,0.0,0.0,93,0.00,,,0.00,VWS V14.01,2013-01-02 13:04:00,
2013-01-02 08:09:00,23.9,22.4,30.29,North,355,0.0,0.0,94,0.00,,,0.00,VWS V14.01,2013-01-02 13:09:00,
2013-01-02 08:14:00,23.9,22.4,30.29,North,355,0.0,0.0,94,0.00,,,0.00,VWS V14.01,2013-01-02 13:14:00,
2013-01-02 08:19:00,23.9,22.4,30.30,North,355,0.0,0.0,94,0.00,,,0.00,VWS V14.01,2013-01-02 13:19:00,
2013-01-02 08:24:00,23.9,22.4,30.30,North,355,0.0,0.0,94,0.00,,,0.00,VWS V14.01,2013-01-02 13:24:00,
2013-01-02 08:29:00,23.9,22.4,30.30,North,355,0.0,0.0,94,0.00,,,0.00,VWS V14.01,2013-01-02 13:29:00,
2013-01-02 08:34:00,23.9,22.4,30.30,North,355,0.0,0.0,94,0.00,,,0.00,VWS V14.01,2013-01-02 13:34:00,
2013-01-02 08:39:00,24.0,22.5,30.31,North,355,0.0,1.0,94,0.00,,,0.00,VWS V14.01,2013-01-02 13:39:00,
2013-01-02 08:44:00,24.2,22.7,30.31,North,355,0.0,0.0,94,0.00,,,0.00,VWS V14.01,2013-01-02 13:44:00,
2013-01-02 08:49:00,24.4,23.2,30.31,North,355,0.0,1.0,95,0.00,,,0.00,VWS V14.01,2013-01-02 13:49:00,
2013-01-02 08:54:00,24.5,23.3,30.31,North,355,3.0,3.0,95,0.00,,,0.00,VWS V14.01,2013-01-02 13:54:00,
2013-01-02 08:59:00,24.6,23.4,30.31,North,355,0.0,1.0,95,0.00,,,0.00,VWS V14.01,2013-01-02 13:59:00,
2013-01-02 09:04:00,24.7,23.2,30.32,North,355,0.0,0.0,94,0.00,,,0.00,VWS V14.01,2013-01-02 14:04:00,
2013-01-02 09:09:00,24.8,23.3,30.33,North,355,0.0,2.0,94,0.00,,,0.00,VWS V14.01,2013-01-02 14:09:00,
2013-01-02 09:14:00,24.9,23.4,30.33,North,355,0.0,0.0,94,0.00,,,0.00,VWS V14.01,2013-01-02 14:14:00,
2013-01-02 09:19:00,25.1,23.9,30.33,North,355,0.0,0.0,95,0.00,,,0.00,VWS V14.01,2013-01-02 14:19:00,
2013-01-02 09:24:00,25.1,23.6,30.33,North,355,0.0,0.0,94,0.00,,,0.00,VWS V14.01,2013-01-02 14:24:00,
2013-01-02 09:29:00,25.2,23.7,30.33,North,355,1.0,3.0,94,0.00,,,0.00,VWS V14.01,2013-01-02 14:29:00,
2013-01-02 09:34:00,25.3,23.8,30.33,North,355,1.0,1.0,94,0.00,,,0.00,VWS V14.01,2013-01-02 14:34:00,
2013-01-02 09:39:00,25.3,23.8,30.33,North,355,0.0,0.0,94,0.00,,,0.00,VWS V14.01,2013-01-02 14:39:00,
2013-01-02 09:44:00,25.5,24.0,30.33,North,355,0.0,0.0,94,0.00,,,0.00,VWS V14.01,2013-01-02 14:44:00,
2013-01-02 09:49:00,25.6,24.1,30.34,North,355,0.0,2.0,94,0.00,,,0.00,VWS V14.01,2013-01-02 14:49:00,
2013-01-02 09:54:00,25.6,24.1,30.33,North,355,0.0,0.0,94,0.00,,,0.00,VWS V14.01,2013-01-02 14:54:00,
2013-01-02 09:59:00,25.6,24.1,30.33,North,355,1.0,2.0,94,0.00,,,0.00,VWS V14.01,2013-01-02 14:59:00,
2013-01-02 10:04:00,25.6,23.9,30.34,North,355,0.0,2.0,93,0.00,,,0.00,VWS V14.01,2013-01-02 15:04:00,
2013-01-02 10:09:00,25.7,24.0,30.34,North,355,0.0,1.0,93,0.00,,,0.00,VWS V14.01,2013-01-02 15:09:00,
2013-01-02 10:14:00,25.7,24.0,30.34,North,355,0.0,1.0,93,0.00,,,0.00,VWS V14.01,2013-01-02 15:14:00,
2013-01-02 10:19:00,25.7,24.0,30.34,North,355,1.0,2.0,93,0.00,,,0.00,VWS V14.01,2013-01-02 15:19:00,
2013-01-02 10:24:00,25.7,24.0,30.34,North,355,0.0,0.0,93,0.00,,,0.00,VWS V14.01,2013-01-02 15:24:00,
2013-01-02 10:29:00,25.7,24.0,30.34,North,355,0.0,1.0,93,0.00,,,0.00,VWS V14.01,2013-01-02 15:29:00,
2013-01-02 10:34:00,25.8,24.1,30.35,North,355,0.0,1.0,93,0.00,,,0.00,VWS V14.01,2013-01-02 15:34:00,
2013-01-02 10:40:00,25.9,24.2,30.35,North,355,0.0,0.0,93,0.00,,,0.00,VWS V14.01,2013-01-02 15:40:00,
2013-01-02 10:45:00,25.9,24.2,30.35,North,355,0.0,1.0,93,0.00,,,0.00,VWS V14.01,2013-01-02 15:45:00,
2013-01-02 10:50:00,26.1,24.4,30.35,North,355,0.0,3.0,93,0.00,,,0.00,VWS V14.01,2013-01-02 15:50:00,
2013-01-02 10:55:00,26.2,24.5,30.35,North,355,1.0,3.0,93,0.00,,,0.00,VWS V14.01,2013-01-02 15:55:00,
2013-01-02 11:00:00,26.2,24.2,30.35,North,355,4.0,4.0,92,0.00,,,0.00,VWS V14.01,2013-01-02 16:00:00,
2013-01-02 11:05:00,26.2,24.2,30.35,North,355,0.0,0.0,92,0.00,,,0.00,VWS V14.01,2013-01-02 16:05:00,
2013-01-02 11:10:00,26.2,24.2,30.35,North,355,0.0,0.0,92,0.00,,,0.00,VWS V14.01,2013-01-02 16:10:00,
2013-01-02 11:15:00,26.2,24.2,30.36,North,355,0.0,0.0,92,0.00,,,0.00,VWS V14.01,2013-01-02 16:15:00,
2013-01-02 11:20:00,26.4,24.4,30.36,North,355,0.0,1.0,92,0.00,,,0.00,VWS V14.01,2013-01-02 16:20:00,
2013-01-02 11:25:00,26.5,24.5,30.36,North,355,0.0,0.0,92,0.00,,,0.00,VWS V14.01,2013-01-02 16:25:00,
2013-01-02 11:30:00,26.7,24.7,30.36,North,355,1.0,2.0,92,0.00,,,0.00,VWS V14.01,2013-01-02 16:30:00,
2013-01-02 11:35:00,26.9,24.6,30.35,North,351,2.0,2.0,91,0.00,,,0.00,VWS V14.01,2013-01-02 16:35:00,
2013-01-02 11:40:00,26.8,24.5,30.35,North,351,0.0,1.0,91,0.00,,,0.00,VWS V14.01,2013-01-02 16:40:00,
2013-01-02 11:45:00,26.8,24.3,30.35,North,351,0.0,1.0,90,0.00,,,0.00,VWS V14.01,2013-01-02 16:45:00,
2013-01-02 11:50:00,26.7,24.2,30.35,North,351,0.0,1.0,90,0.00,,,0.00,VWS V14.01,2013-01-02 16:50:00,
2013-01-02 11:55:00,26.9,24.4,30.35,North,351,3.0,3.0,90,0.00,,,0.00,VWS V14.01,2013-01-02 16:55:00,
2013-01-02 12:00:00,27.0,24.5,30.34,North,350,0.0,2.0,90,0.00,,,0.00,VWS V14.01,2013-01-02 17:00:00,
2013-01-02 12:05:00,27.2,24.7,30.34,North,351,0.0,0.0,90,0.00,,,0.00,VWS V14.01,2013-01-02 17:05:00,
2013-01-02 12:10:00,27.4,24.6,30.34,North,350,1.0,2.0,89,0.00,,,0.00,VWS V14.01,2013-01-02 17:10:00,
2013-01-02 12:15:00,27.5,25.0,30.34,North,351,0.0,1.0,90,0.00,,,0.00,VWS V14.01,2013-01-02 17:15:00,
2013-01-02 12:20:00,27.6,24.8,30.33,North,350,0.0,0.0,89,0.00,,,0.00,VWS V14.01,2013-01-02 17:20:00,
2013-01-02 12:25:00,27.7,24.9,30.33,North,351,0.0,0.0,89,0.00,,,0.00,VWS V14.01,2013-01-02 17:25:00,
2013-01-02 12:30:00,27.7,24.9,30.33,North,350,0.0,2.0,89,0.00,,,0.00,VWS V14.01,2013-01-02 17:30:00,
2013-01-02 12:35:00,27.6,24.8,30.33,North,350,2.0,2.0,89,0.00,,,0.00,VWS V14.01,2013-01-02 17:35:00,
2013-01-02 12:40:00,27.7,25.2,30.33,North,350,3.0,3.0,90,0.00,,,0.00,VWS V14.01,2013-01-02 17:40:00,
2013-01-02 12:45:00,27.6,24.8,30.33,NNW,348,1.0,1.0,89,0.00,,,0.00,VWS V14.01,2013-01-02 17:45:00,
2013-01-02 12:50:00,27.5,24.4,30.33,NNW,338,1.0,2.0,88,0.00,,,0.00,VWS V14.01,2013-01-02 17:50:00,
2013-01-02 12:55:00,27.5,24.7,30.33,NNW,338,3.0,3.0,89,0.00,,,0.00,VWS V14.01,2013-01-02 17:55:00,
2013-01-02 13:00:00,27.6,24.8,30.32,NNW,337,3.0,3.0,89,0.00,,,0.00,VWS V14.01,2013-01-02 18:00:00,
2013-01-02 13:05:00,27.7,24.9,30.32,NNW,337,2.0,2.0,89,0.00,,,0.00,VWS V14.01,2013-01-02 18:05:00,
2013-01-02 13:10:00,27.9,25.1,30.32,NNW,337,0.0,2.0,89,0.00,,,0.00,VWS V14.01,2013-01-02 18:10:00,
2013-01-02 13:15:00,28.1,25.0,30.31,NNW,338,2.0,3.0,88,0.00,,,0.00,VWS V14.01,2013-01-02 18:15:00,
2013-01-02 13:20:00,27.9,24.5,30.31,NNW,342,0.0,1.0,87,0.00,,,0.00,VWS V14.01,2013-01-02 18:20:00,
2013-01-02 13:25:00,27.9,24.8,30.32,NNW,342,2.0,2.0,88,0.00,,,0.00,VWS V14.01,2013-01-02 18:25:00,
2013-01-02 13:31:00,28.1,25.0,30.31,NNW,342,3.0,3.0,88,0.00,,,0.00,VWS V14.01,2013-01-02 18:31:00,
2013-01-02 13:36:00,28.4,25.0,30.31,NNW,342,0.0,1.0,87,0.00,,,0.00,VWS V14.01,2013-01-02 18:36:00,
2013-01-02 13:41:00,29.1,26.0,30.31,NNW,342,0.0,1.0,88,0.00,,,0.00,VWS V14.01,2013-01-02 18:41:00,
2013-01-02 13:46:00,30.0,26.6,30.31,NNW,340,3.0,4.0,87,0.00,,,0.00,VWS V14.01,2013-01-02 18:46:00,
2013-01-02 13:51:00,30.4,26.1,30.31,NNW,336,2.0,3.0,84,0.00,,,0.00,VWS V14.01,2013-01-02 18:51:00,
2013-01-02 13:56:00,30.5,26.0,30.31,NNW,336,5.0,5.0,83,0.00,,,0.00,VWS V14.01,2013-01-02 18:56:00,
2013-01-02 14:01:00,30.2,25.4,30.30,NNW,336,1.0,2.0,82,0.00,,,0.00,VWS V14.01,2013-01-02 19:01:00,
2013-01-02 14:06:00,30.1,25.6,30.30,NNW,337,2.0,2.0,83,0.00,,,0.00,VWS V14.01,2013-01-02 19:06:00,
2013-01-02 14:11:00,29.8,25.3,30.29,NNW,337,1.0,1.0,83,0.00,,,0.00,VWS V14.01,2013-01-02 19:11:00,
2013-01-02 14:16:00,30.0,25.5,30.29,NNW,337,0.0,0.0,83,0.00,,,0.00,VWS V14.01,2013-01-02 19:16:00,
2013-01-02 14:21:00,30.6,26.1,30.28,NNW,337,0.0,1.0,83,0.00,,,0.00,VWS V14.01,2013-01-02 19:21:00,
2013-01-02 14:26:00,31.2,26.4,30.29,NNW,336,0.0,0.0,82,0.00,,,0.00,VWS V14.01,2013-01-02 19:26:00,
2013-01-02 14:31:00,31.6,25.5,30.29,NNW,336,3.0,4.0,78,0.00,,,0.00,VWS V14.01,2013-01-02 19:31:00,
2013-01-02 14:36:00,31.7,25.6,30.29,NNW,336,3.0,3.0,78,0.00,,,0.00,VWS V14.01,2013-01-02 19:36:00,
2013-01-02 14:41:00,31.8,25.7,30.29,NNW,336,1.0,2.0,78,0.00,,,0.00,VWS V14.01,2013-01-02 19:41:00,
2013-01-02 14:46:00,31.8,25.4,30.30,NNW,336,0.0,2.0,77,0.00,,,0.00,VWS V14.01,2013-01-02 19:46:00,
2013-01-02 14:51:00,32.0,25.6,30.30,NNW,336,0.0,0.0,77,0.00,,,0.00,VWS V14.01,2013-01-02 19:51:00,
2013-01-02 14:56:00,32.2,25.8,30.29,NNW,336,0.0,2.0,77,0.00,,,0.00,VWS V14.01,2013-01-02 19:56:00,
2013-01-02 15:01:00,32.0,25.6,30.30,NNW,336,0.0,0.0,77,0.00,,,0.00,VWS V14.01,2013-01-02 20:01:00,
2013-01-02 15:06:00,32.4,26.0,30.29,NNW,336,0.0,1.0,77,0.00,,,0.00,VWS V14.01,2013-01-02 20:06:00,
2013-01-02 15:11:00,32.5,25.5,30.29,NNW,336,0.0,0.0,75,0.00,,,0.00,VWS V14.01,2013-01-02 20:11:00,
2013-01-02 15:16:00,32.8,25.8,30.28,NNW,336,2.0,2.0,75,0.00,,,0.00,VWS V14.01,2013-01-02 20:16:00,
2013-01-02 15:21:00,32.9,25.5,30.28,NNW,336,2.0,3.0,74,0.00,,,0.00,VWS V14.01,2013-01-02 20:21:00,
2013-01-02 15:26:00,33.1,25.7,30.28,NNW,336,0.0,0.0,74,0.00,,,0.00,VWS V14.01,2013-01-02 20:26:00,
2013-01-02 15:31:00,33.0,25.3,30.28,NNW,336,2.0,3.0,73,0.00,,,0.00,VWS V14.01,2013-01-02 20:31:00,
2013-01-02 15:36:00,32.6,25.2,30.28,NNW,336,1.0,1.0,74,0.00,,,0.00,VWS V14.01,2013-01-02 20:36:00,
2013-01-02 15:41:00,32.8,25.4,30.28,NNW,336,0.0,0.0,74,0.00,,,0.00,VWS V14.01,2013-01-02 20:41:00,
2013-01-02 15:46:00,33.3,25.3,30.29,NNW,336,1.0,2.0,72,0.00,,,0.00,VWS V14.01,2013-01-02 20:46:00,
2013-01-02 15:51:00,33.4,25.4,30.29,NNW,336,3.0,3.0,72,0.00,,,0.00,VWS V14.01,2013-01-02 20:51:00,
2013-01-02 15:56:00,33.2,25.5,30.30,NNW,336,1.0,4.0,73,0.00,,,0.00,VWS V14.01,2013-01-02 20:56:00,
2013-01-02 16:01:00,33.0,25.3,30.29,NNW,335,2.0,2.0,73,0.00,,,0.00,VWS V14.01,2013-01-02 21:01:00,
2013-01-02 16:06:00,33.1,25.4,30.29,NNW,334,0.0,1.0,73,0.00,,,0.00,VWS V14.01,2013-01-02 21:06:00,
2013-01-02 16:11:00,33.2,25.5,30.28,NNW,335,0.0,2.0,73,0.00,,,0.00,VWS V14.01,2013-01-02 21:11:00,
2013-01-02 16:16:00,33.2,25.2,30.29,NNW,334,0.0,1.0,72,0.00,,,0.00,VWS V14.01,2013-01-02 21:16:00,
2013-01-02 16:21:00,33.3,25.3,30.28,NNW,336,0.0,1.0,72,0.00,,,0.00,VWS V14.01,2013-01-02 21:21:00,
2013-01-02 16:27:00,33.6,25.2,30.29,NNW,334,0.0,0.0,71,0.00,,,0.00,VWS V14.01,2013-01-02 21:27:00,
2013-01-02 16:32:00,33.4,25.4,30.29,NNW,336,0.0,0.0,72,0.00,,,0.00,VWS V14.01,2013-01-02 21:32:00,
2013-01-02 16:37:00,33.2,25.2,30.29,NNW,335,2.0,2.0,72,0.00,,,0.00,VWS V14.01,2013-01-02 21:37:00,
2013-01-02 16:42:00,32.9,24.9,30.29,NNW,335,0.0,1.0,72,0.00,,,0.00,VWS V14.01,2013-01-02 21:42:00,
2013-01-02 16:47:00,32.6,24.6,30.29,NNW,336,1.0,1.0,72,0.01,,,0.01,VWS V14.01,2013-01-02 21:47:00,
2013-01-02 16:52:00,32.3,24.6,30.29,NNW,334,0.0,0.0,73,0.01,,,0.01,VWS V14.01,2013-01-02 21:52:00,
2013-01-02 16:57:00,32.1,24.8,30.29,NNW,335,0.0,0.0,74,0.01,,,0.01,VWS V14.01,2013-01-02 21:57:00,
2013-01-02 17:02:00,32.0,24.7,30.29,NNW,334,0.0,0.0,74,0.01,,,0.01,VWS V14.01,2013-01-02 22:02:00,
2013-01-02 17:07:00,31.9,24.9,30.29,NNW,335,0.0,0.0,75,0.01,,,0.01,VWS V14.01,2013-01-02 22:07:00,
2013-01-02 17:12:00,31.8,24.8,30.29,NNW,335,0.0,0.0,75,0.01,,,0.01,VWS V14.01,2013-01-02 22:12:00,
2013-01-02 17:17:00,31.7,25.0,30.29,NNW,335,0.0,0.0,76,0.01,,,0.01,VWS V14.01,2013-01-02 22:17:00,
2013-01-02 17:22:00,31.5,24.5,30.29,NNW,335,0.0,0.0,75,0.01,,,0.01,VWS V14.01,2013-01-02 22:22:00,
2013-01-02 17:27:00,31.4,24.7,30.30,NNW,335,0.0,0.0,76,0.01,,,0.01,VWS V14.01,2013-01-02 22:27:00,
2013-01-02 17:32:00,31.3,24.6,30.30,NNW,335,0.0,0.0,76,0.01,,,0.01,VWS V14.01,2013-01-02 22:32:00,
2013-01-02 17:37:00,31.1,24.4,30.30,NNW,335,0.0,0.0,76,0.01,,,0.01,VWS V14.01,2013-01-02 22:37:00,
2013-01-02 17:42:00,31.0,24.6,30.30,NNW,335,0.0,0.0,77,0.01,,,0.01,VWS V14.01,2013-01-02 22:42:00,